sensor_id;sensor_type;location;lat;lon;timestamp;P1;durP1;ratioP1;P2;durP2;ratioP2
75516;SDS011;64097;52.548;13.406;2023-04-06T06:01:55;11.27;;;8.55;;
75516;SDS011;64097;52.548;13.406;2023-04-06T06:04:21;10.93;;;7.22;;
75516;SDS011;64097;52.548;13.406;2023-04-06T06:06:46;8.25;;;7.38;;
75516;SDS011;64097;52.548;13.406;2023-04-06T06:09:12;8.02;;;6.13;;
75516;SDS011;64097;52.548;13.406;2023-04-06T06:11:38;8.48;;;6.85;;
75516;SDS011;64097;52.548;13.406;2023-04-06T06:14:04;8.10;;;6.57;;
75516;SDS011;64097;52.548;13.406;2023-04-06T06:16:29;7.90;;;6.95;;
75516;SDS011;64097;52.548;13.406;2023-04-06T06:19:12;8.07;;;6.38;;
75516;SDS011;64097;52.548;13.406;2023-04-06T06:21:38;7.50;;;6.35;;
75516;SDS011;64097;52.548;13.406;2023-04-06T06:24:04;9.70;;;8.63;;
75516;SDS011;64097;52.548;13.406;2023-04-06T06:26:30;7.50;;;6.78;;
75516;SDS011;64097;52.548;13.406;2023-04-06T06:28:56;7.70;;;6.82;;
75516;SDS011;64097;52.548;13.406;2023-04-06T06:31:22;9.43;;;6.95;;
75516;SDS011;64097;52.548;13.406;2023-04-06T06:33:50;7.32;;;6.22;;
75516;SDS011;64097;52.548;13.406;2023-04-06T06:36:17;6.88;;;6.18;;
75516;SDS011;64097;52.548;13.406;2023-04-06T06:38:43;9.65;;;6.13;;
75516;SDS011;64097;52.548;13.406;2023-04-06T06:41:09;8.20;;;6.65;;
75516;SDS011;64097;52.548;13.406;2023-04-06T06:43:35;7.97;;;6.20;;
75516;SDS011;64097;52.548;13.406;2023-04-06T06:46:00;7.38;;;6.15;;
75516;SDS011;64097;52.548;13.406;2023-04-06T06:48:26;6.45;;;5.78;;
75516;SDS011;64097;52.548;13.406;2023-04-06T06:50:52;7.57;;;6.38;;
75516;SDS011;64097;52.548;13.406;2023-04-06T06:53:18;7.18;;;6.03;;
75516;SDS011;64097;52.548;13.406;2023-04-06T06:55:44;7.82;;;6.85;;
75516;SDS011;64097;52.548;13.406;2023-04-06T06:58:10;7.95;;;5.78;;
75516;SDS011;64097;52.548;13.406;2023-04-06T07:00:36;8.07;;;6.50;;
75516;SDS011;64097;52.548;13.406;2023-04-06T07:03:02;9.77;;;6.65;;
75516;SDS011;64097;52.548;13.406;2023-04-06T07:05:28;8.45;;;5.88;;
75516;SDS011;64097;52.548;13.406;2023-04-06T07:07:54;7.15;;;5.68;;
75516;SDS011;64097;52.548;13.406;2023-04-06T07:10:20;7.05;;;5.60;;
75516;SDS011;64097;52.548;13.406;2023-04-06T07:12:46;9.43;;;5.43;;
75516;SDS011;64097;52.548;13.406;2023-04-06T07:15:12;6.88;;;5.50;;
75516;SDS011;64097;52.548;13.406;2023-04-06T07:17:37;7.15;;;6.10;;
75516;SDS011;64097;52.548;13.406;2023-04-06T07:20:03;6.72;;;5.75;;
75516;SDS011;64097;52.548;13.406;2023-04-06T07:22:29;8.27;;;6.93;;
75516;SDS011;64097;52.548;13.406;2023-04-06T07:24:55;7.85;;;6.32;;
75516;SDS011;64097;52.548;13.406;2023-04-06T07:27:21;7.22;;;6.15;;
75516;SDS011;64097;52.548;13.406;2023-04-06T07:29:47;7.97;;;5.82;;
75516;SDS011;64097;52.548;13.406;2023-04-06T07:32:12;8.25;;;6.22;;
75516;SDS011;64097;52.548;13.406;2023-04-06T07:34:38;9.75;;;5.30;;
75516;SDS011;64097;52.548;13.406;2023-04-06T07:37:04;5.80;;;5.00;;
75516;SDS011;64097;52.548;13.406;2023-04-06T07:39:30;6.60;;;5.00;;
75516;SDS011;64097;52.548;13.406;2023-04-06T07:41:55;7.68;;;5.35;;
75516;SDS011;64097;52.548;13.406;2023-04-06T07:44:21;6.20;;;5.22;;
75516;SDS011;64097;52.548;13.406;2023-04-06T07:46:47;6.03;;;4.60;;
75516;SDS011;64097;52.548;13.406;2023-04-06T07:49:13;7.88;;;5.60;;
75516;SDS011;64097;52.548;13.406;2023-04-06T07:51:39;7.95;;;5.47;;
75516;SDS011;64097;52.548;13.406;2023-04-06T07:54:05;7.22;;;4.88;;
75516;SDS011;64097;52.548;13.406;2023-04-06T07:56:31;5.72;;;4.85;;
75516;SDS011;64097;52.548;13.406;2023-04-06T07:58:57;4.68;;;4.13;;
75516;SDS011;64097;52.548;13.406;2023-04-06T08:01:23;5.55;;;4.95;;
75516;SDS011;64097;52.548;13.406;2023-04-06T08:03:49;7.00;;;4.93;;
75516;SDS011;64097;52.548;13.406;2023-04-06T08:06:15;5.97;;;4.85;;
75516;SDS011;64097;52.548;13.406;2023-04-06T08:08:41;9.93;;;5.72;;
75516;SDS011;64097;52.548;13.406;2023-04-06T08:11:08;5.28;;;4.30;;
75516;SDS011;64097;52.548;13.406;2023-04-06T08:13:34;6.82;;;4.60;;
75516;SDS011;64097;52.548;13.406;2023-04-06T08:16:00;7.43;;;5.10;;
75516;SDS011;64097;52.548;13.406;2023-04-06T08:18:26;6.28;;;4.68;;
75516;SDS011;64097;52.548;13.406;2023-04-06T08:20:52;5.75;;;4.53;;
75516;SDS011;64097;52.548;13.406;2023-04-06T08:23:19;6.50;;;4.35;;
75516;SDS011;64097;52.548;13.406;2023-04-06T08:25:45;8.90;;;4.32;;
75516;SDS011;64097;52.548;13.406;2023-04-06T08:28:11;7.47;;;4.68;;
75516;SDS011;64097;52.548;13.406;2023-04-06T08:30:39;5.55;;;4.03;;
75516;SDS011;64097;52.548;13.406;2023-04-06T08:33:08;4.53;;;3.80;;
75516;SDS011;64097;52.548;13.406;2023-04-06T08:35:35;5.97;;;4.03;;
75516;SDS011;64097;52.548;13.406;2023-04-06T08:38:00;4.88;;;3.78;;
75516;SDS011;64097;52.548;13.406;2023-04-06T08:40:26;4.00;;;3.40;;
75516;SDS011;64097;52.548;13.406;2023-04-06T08:42:54;7.00;;;3.97;;
75516;SDS011;64097;52.548;13.406;2023-04-06T08:45:21;3.70;;;3.30;;
75516;SDS011;64097;52.548;13.406;2023-04-06T08:47:50;3.85;;;2.95;;
75516;SDS011;64097;52.548;13.406;2023-04-06T08:50:19;5.13;;;3.03;;
75516;SDS011;64097;52.548;13.406;2023-04-06T08:52:49;4.55;;;3.25;;
75516;SDS011;64097;52.548;13.406;2023-04-06T08:55:15;4.30;;;3.58;;
75516;SDS011;64097;52.548;13.406;2023-04-06T08:57:41;3.25;;;2.85;;
75516;SDS011;64097;52.548;13.406;2023-04-06T09:00:09;3.75;;;2.70;;
75516;SDS011;64097;52.548;13.406;2023-04-06T09:02:38;3.88;;;2.83;;
75516;SDS011;64097;52.548;13.406;2023-04-06T09:05:06;4.28;;;2.80;;
75516;SDS011;64097;52.548;13.406;2023-04-06T09:07:33;4.18;;;2.67;;
75516;SDS011;64097;52.548;13.406;2023-04-06T09:10:00;4.20;;;3.20;;
75516;SDS011;64097;52.548;13.406;2023-04-06T09:12:26;6.40;;;2.90;;
75516;SDS011;64097;52.548;13.406;2023-04-06T09:14:53;2.63;;;2.35;;
75516;SDS011;64097;52.548;13.406;2023-04-06T09:17:30;3.33;;;3.03;;
75516;SDS011;64097;52.548;13.406;2023-04-06T09:19:59;3.22;;;2.70;;
75516;SDS011;64097;52.548;13.406;2023-04-06T09:22:25;3.00;;;2.70;;
75516;SDS011;64097;52.548;13.406;2023-04-06T09:25:00;3.15;;;2.53;;
75516;SDS011;64097;52.548;13.406;2023-04-06T09:27:30;3.03;;;2.58;;
75516;SDS011;64097;52.548;13.406;2023-04-06T09:30:04;2.83;;;2.47;;
75516;SDS011;64097;52.548;13.406;2023-04-06T09:32:43;2.90;;;2.30;;
75516;SDS011;64097;52.548;13.406;2023-04-06T09:35:10;3.33;;;2.47;;
75516;SDS011;64097;52.548;13.406;2023-04-06T09:37:36;3.42;;;2.30;;
75516;SDS011;64097;52.548;13.406;2023-04-06T09:40:05;4.45;;;2.00;;
75516;SDS011;64097;52.548;13.406;2023-04-06T09:42:32;2.72;;;2.38;;
75516;SDS011;64097;52.548;13.406;2023-04-06T09:45:00;2.95;;;2.25;;
75516;SDS011;64097;52.548;13.406;2023-04-06T09:47:30;3.90;;;2.28;;
75516;SDS011;64097;52.548;13.406;2023-04-06T09:49:57;2.42;;;2.20;;
75516;SDS011;64097;52.548;13.406;2023-04-06T09:52:26;3.38;;;2.55;;
75516;SDS011;64097;52.548;13.406;2023-04-06T09:54:57;2.67;;;1.88;;
75516;SDS011;64097;52.548;13.406;2023-04-06T09:57:35;2.47;;;1.70;;
75516;SDS011;64097;52.548;13.406;2023-04-06T10:00:06;2.63;;;1.88;;
75516;SDS011;64097;52.548;13.406;2023-04-06T10:07:59;2.15;;;1.75;;
75516;SDS011;64097;52.548;13.406;2023-04-06T10:10:32;2.35;;;1.70;;
75516;SDS011;64097;52.548;13.406;2023-04-06T10:12:58;3.65;;;1.60;;
75516;SDS011;64097;52.548;13.406;2023-04-06T10:15:25;2.47;;;1.88;;
75516;SDS011;64097;52.548;13.406;2023-04-06T10:17:53;2.25;;;1.80;;
75516;SDS011;64097;52.548;13.406;2023-04-06T10:20:35;2.25;;;1.90;;
75516;SDS011;64097;52.548;13.406;2023-04-06T10:23:12;3.85;;;2.90;;
75516;SDS011;64097;52.548;13.406;2023-04-06T10:25:55;3.35;;;2.40;;
75516;SDS011;64097;52.548;13.406;2023-04-06T10:28:21;3.10;;;2.42;;
75516;SDS011;64097;52.548;13.406;2023-04-06T10:30:49;2.72;;;2.30;;
75516;SDS011;64097;52.548;13.406;2023-04-06T10:33:26;2.30;;;1.63;;
75516;SDS011;64097;52.548;13.406;2023-04-06T10:35:53;3.60;;;2.30;;
75516;SDS011;64097;52.548;13.406;2023-04-06T10:38:43;4.32;;;2.17;;
75516;SDS011;64097;52.548;13.406;2023-04-06T10:41:09;2.22;;;1.67;;
75516;SDS011;64097;52.548;13.406;2023-04-06T10:43:37;2.45;;;1.90;;
75516;SDS011;64097;52.548;13.406;2023-04-06T10:46:04;3.80;;;2.05;;
75516;SDS011;64097;52.548;13.406;2023-04-06T10:48:44;3.67;;;1.80;;
75516;SDS011;64097;52.548;13.406;2023-04-06T10:51:15;2.05;;;1.85;;
75516;SDS011;64097;52.548;13.406;2023-04-06T10:53:42;2.00;;;1.60;;
75516;SDS011;64097;52.548;13.406;2023-04-06T10:56:13;1.85;;;1.60;;
75516;SDS011;64097;52.548;13.406;2023-04-06T10:58:47;2.03;;;1.83;;
75516;SDS011;64097;52.548;13.406;2023-04-06T11:01:17;1.92;;;1.77;;
75516;SDS011;64097;52.548;13.406;2023-04-06T11:03:47;2.20;;;1.83;;
75516;SDS011;64097;52.548;13.406;2023-04-06T11:06:32;2.05;;;1.65;;
75516;SDS011;64097;52.548;13.406;2023-04-06T11:08:58;2.63;;;1.70;;
75516;SDS011;64097;52.548;13.406;2023-04-06T11:11:25;3.25;;;1.75;;
75516;SDS011;64097;52.548;13.406;2023-04-06T11:13:52;2.83;;;1.80;;
75516;SDS011;64097;52.548;13.406;2023-04-06T11:16:22;2.67;;;2.00;;
75516;SDS011;64097;52.548;13.406;2023-04-06T11:18:52;2.13;;;1.73;;
75516;SDS011;64097;52.548;13.406;2023-04-06T11:21:41;2.15;;;1.60;;
75516;SDS011;64097;52.548;13.406;2023-04-06T11:24:12;2.40;;;2.03;;
75516;SDS011;64097;52.548;13.406;2023-04-06T11:26:42;3.30;;;2.05;;
75516;SDS011;64097;52.548;13.406;2023-04-06T11:29:10;2.65;;;1.92;;
75516;SDS011;64097;52.548;13.406;2023-04-06T11:31:47;2.10;;;1.90;;
75516;SDS011;64097;52.548;13.406;2023-04-06T11:34:17;2.30;;;1.45;;
75516;SDS011;64097;52.548;13.406;2023-04-06T11:36:45;1.98;;;1.70;;
75516;SDS011;64097;52.548;13.406;2023-04-06T11:39:21;2.85;;;2.10;;
75516;SDS011;64097;52.548;13.406;2023-04-06T11:41:52;2.45;;;1.98;;
75516;SDS011;64097;52.548;13.406;2023-04-06T11:44:42;4.32;;;1.90;;
75516;SDS011;64097;52.548;13.406;2023-04-06T11:47:11;1.90;;;1.60;;
75516;SDS011;64097;52.548;13.406;2023-04-06T11:49:38;3.58;;;1.90;;
75516;SDS011;64097;52.548;13.406;2023-04-06T11:52:15;2.13;;;1.58;;
75516;SDS011;64097;52.548;13.406;2023-04-06T11:54:40;2.33;;;1.83;;
75516;SDS011;64097;52.548;13.406;2023-04-06T11:57:07;2.10;;;1.90;;
75516;SDS011;64097;52.548;13.406;2023-04-06T11:59:34;1.98;;;1.77;;
75516;SDS011;64097;52.548;13.406;2023-04-06T12:02:03;2.10;;;1.90;;
75516;SDS011;64097;52.548;13.406;2023-04-06T12:04:30;2.72;;;1.90;;
75516;SDS011;64097;52.548;13.406;2023-04-06T12:06:57;2.20;;;2.00;;
75516;SDS011;64097;52.548;13.406;2023-04-06T12:09:23;3.25;;;2.22;;
75516;SDS011;64097;52.548;13.406;2023-04-06T12:11:48;2.45;;;2.00;;
75516;SDS011;64097;52.548;13.406;2023-04-06T12:14:14;2.53;;;1.98;;
75516;SDS011;64097;52.548;13.406;2023-04-06T12:16:41;2.25;;;1.80;;
75516;SDS011;64097;52.548;13.406;2023-04-06T12:19:07;1.95;;;1.85;;
75516;SDS011;64097;52.548;13.406;2023-04-06T12:21:34;2.13;;;1.92;;
75516;SDS011;64097;52.548;13.406;2023-04-06T12:24:02;2.20;;;2.00;;
75516;SDS011;64097;52.548;13.406;2023-04-06T12:26:28;2.13;;;1.80;;
75516;SDS011;64097;52.548;13.406;2023-04-06T12:28:54;2.05;;;1.80;;
75516;SDS011;64097;52.548;13.406;2023-04-06T12:31:21;3.00;;;2.30;;
75516;SDS011;64097;52.548;13.406;2023-04-06T12:33:51;2.90;;;2.10;;
75516;SDS011;64097;52.548;13.406;2023-04-06T12:36:18;2.08;;;1.88;;
75516;SDS011;64097;52.548;13.406;2023-04-06T12:38:49;2.00;;;1.80;;
75516;SDS011;64097;52.548;13.406;2023-04-06T12:41:16;2.15;;;1.70;;
75516;SDS011;64097;52.548;13.406;2023-04-06T12:43:42;3.70;;;2.03;;
75516;SDS011;64097;52.548;13.406;2023-04-06T12:46:09;2.78;;;1.88;;
75516;SDS011;64097;52.548;13.406;2023-04-06T12:48:35;3.03;;;1.70;;
75516;SDS011;64097;52.548;13.406;2023-04-06T12:51:02;3.10;;;1.90;;
75516;SDS011;64097;52.548;13.406;2023-04-06T12:53:29;5.03;;;2.35;;
75516;SDS011;64097;52.548;13.406;2023-04-06T12:55:56;2.78;;;2.25;;
75516;SDS011;64097;52.548;13.406;2023-04-06T12:58:22;2.45;;;2.10;;
75516;SDS011;64097;52.548;13.406;2023-04-06T13:00:49;1.67;;;1.58;;
75516;SDS011;64097;52.548;13.406;2023-04-06T13:03:16;3.65;;;1.90;;
75516;SDS011;64097;52.548;13.406;2023-04-06T13:05:44;2.17;;;1.98;;
75516;SDS011;64097;52.548;13.406;2023-04-06T13:08:13;1.90;;;1.77;;
75516;SDS011;64097;52.548;13.406;2023-04-06T13:10:49;2.80;;;1.90;;
75516;SDS011;64097;52.548;13.406;2023-04-06T13:13:17;2.63;;;2.00;;
75516;SDS011;64097;52.548;13.406;2023-04-06T13:15:44;2.20;;;1.98;;
75516;SDS011;64097;52.548;13.406;2023-04-06T13:18:10;3.50;;;2.08;;
75516;SDS011;64097;52.548;13.406;2023-04-06T13:20:36;2.40;;;2.15;;
75516;SDS011;64097;52.548;13.406;2023-04-06T13:23:02;2.25;;;2.03;;
75516;SDS011;64097;52.548;13.406;2023-04-06T13:25:27;2.60;;;2.10;;
75516;SDS011;64097;52.548;13.406;2023-04-06T13:27:54;3.03;;;2.13;;
75516;SDS011;64097;52.548;13.406;2023-04-06T13:30:20;2.15;;;1.95;;
75516;SDS011;64097;52.548;13.406;2023-04-06T13:32:46;4.20;;;2.72;;
75516;SDS011;64097;52.548;13.406;2023-04-06T13:35:12;3.15;;;2.05;;
75516;SDS011;64097;52.548;13.406;2023-04-06T13:37:38;4.60;;;2.30;;
75516;SDS011;64097;52.548;13.406;2023-04-06T13:40:04;3.83;;;2.40;;
75516;SDS011;64097;52.548;13.406;2023-04-06T13:42:31;2.33;;;2.13;;
75516;SDS011;64097;52.548;13.406;2023-04-06T13:44:57;2.53;;;2.05;;
75516;SDS011;64097;52.548;13.406;2023-04-06T13:47:23;2.40;;;1.80;;
75516;SDS011;64097;52.548;13.406;2023-04-06T13:49:51;3.95;;;2.25;;
75516;SDS011;64097;52.548;13.406;2023-04-06T13:52:21;2.42;;;2.20;;
75516;SDS011;64097;52.548;13.406;2023-04-06T13:54:48;2.30;;;2.10;;
75516;SDS011;64097;52.548;13.406;2023-04-06T13:57:14;2.53;;;2.17;;
75516;SDS011;64097;52.548;13.406;2023-04-06T13:59:40;2.80;;;2.40;;
